sensor_id;sensor_type;location;lat;lon;timestamp;pressure;altitude;pressure_sealevel;temperature;humidity
16595;BME280;8410;52.532;13.336;2023-01-29T00:01:59;102275.69;;;3.83;70.33
16595;BME280;8410;52.532;13.336;2023-01-29T00:04:26;102267.91;;;4.22;69.33
16595;BME280;8410;52.532;13.336;2023-01-29T00:06:54;102267.72;;;4.05;70.01
16595;BME280;8410;52.532;13.336;2023-01-29T00:09:21;102265.34;;;4.22;68.35
16595;BME280;8410;52.532;13.336;2023-01-29T00:11:49;102265.78;;;4.28;67.86
16595;BME280;8410;52.532;13.336;2023-01-29T00:14:16;102274.34;;;4.43;69.51
16595;BME280;8410;52.532;13.336;2023-01-29T00:16:44;102273.66;;;4.46;68.90
16595;BME280;8410;52.532;13.336;2023-01-29T00:19:13;102269.53;;;4.48;67.78
16595;BME280;8410;52.532;13.336;2023-01-29T00:21:40;102280.16;;;3.61;72.44
16595;BME280;8410;52.532;13.336;2023-01-29T00:24:08;102268.03;;;4.23;70.91
16595;BME280;8410;52.532;13.336;2023-01-29T00:26:36;102259.28;;;4.06;71.27
16595;BME280;8410;52.532;13.336;2023-01-29T00:29:04;102263.47;;;3.01;73.16
16595;BME280;8410;52.532;13.336;2023-01-29T00:31:31;102263.25;;;3.88;72.21
16595;BME280;8410;52.532;13.336;2023-01-29T00:33:59;102257.22;;;4.14;69.38
16595;BME280;8410;52.532;13.336;2023-01-29T00:36:28;102249.09;;;4.19;69.12
16595;BME280;8410;52.532;13.336;2023-01-29T00:38:56;102256.25;;;3.45;69.64
16595;BME280;8410;52.532;13.336;2023-01-29T00:41:27;102244.59;;;4.15;70.07
16595;BME280;8410;52.532;13.336;2023-01-29T00:44:12;102243.25;;;3.81;69.33
16595;BME280;8410;52.532;13.336;2023-01-29T00:46:57;102235.50;;;4.47;68.90
16595;BME280;8410;52.532;13.336;2023-01-29T00:49:25;102229.59;;;4.20;69.35
16595;BME280;8410;52.532;13.336;2023-01-29T00:51:54;102234.91;;;4.51;68.67
16595;BME280;8410;52.532;13.336;2023-01-29T00:54:38;102233.91;;;4.62;67.62
16595;BME280;8410;52.532;13.336;2023-01-29T00:57:06;102247.94;;;3.48;69.81
16595;BME280;8410;52.532;13.336;2023-01-29T00:59:33;102243.44;;;3.97;70.27
16595;BME280;8410;52.532;13.336;2023-01-29T01:02:01;102251.47;;;3.90;69.31
16595;BME280;8410;52.532;13.336;2023-01-29T01:04:46;102253.97;;;3.50;72.03
16595;BME280;8410;52.532;13.336;2023-01-29T01:07:15;102243.34;;;2.79;73.76
16595;BME280;8410;52.532;13.336;2023-01-29T01:09:42;102249.47;;;3.33;73.27
16595;BME280;8410;52.532;13.336;2023-01-29T01:12:27;102236.41;;;3.93;72.30
16595;BME280;8410;52.532;13.336;2023-01-29T01:14:54;102246.94;;;3.46;72.60
16595;BME280;8410;52.532;13.336;2023-01-29T01:17:22;102242.81;;;4.28;71.03
16595;BME280;8410;52.532;13.336;2023-01-29T01:19:50;102236.44;;;4.21;70.51
16595;BME280;8410;52.532;13.336;2023-01-29T01:22:19;102240.13;;;4.39;69.62
16595;BME280;8410;52.532;13.336;2023-01-29T01:24:46;102238.16;;;3.94;71.50
16595;BME280;8410;52.532;13.336;2023-01-29T01:27:14;102247.19;;;4.30;70.54
16595;BME280;8410;52.532;13.336;2023-01-29T01:29:42;102237.50;;;4.25;70.52
16595;BME280;8410;52.532;13.336;2023-01-29T01:32:10;102232.44;;;4.53;69.90
16595;BME280;8410;52.532;13.336;2023-01-29T01:34:37;102237.66;;;4.41;70.46
16595;BME280;8410;52.532;13.336;2023-01-29T01:37:05;102230.22;;;3.89;71.61
16595;BME280;8410;52.532;13.336;2023-01-29T01:39:33;102235.19;;;4.56;70.66
16595;BME280;8410;52.532;13.336;2023-01-29T01:42:01;102236.53;;;4.36;70.26
16595;BME280;8410;52.532;13.336;2023-01-29T01:44:50;102246.09;;;4.40;70.57
16595;BME280;8410;52.532;13.336;2023-01-29T01:47:22;102247.94;;;4.56;70.28
16595;BME280;8410;52.532;13.336;2023-01-29T01:49:52;102244.53;;;4.42;70.63
16595;BME280;8410;52.532;13.336;2023-01-29T01:52:20;102244.19;;;4.36;70.35
16595;BME280;8410;52.532;13.336;2023-01-29T01:54:52;102243.13;;;4.06;72.18
16595;BME280;8410;52.532;13.336;2023-01-29T01:57:21;102230.94;;;4.28;71.29
16595;BME280;8410;52.532;13.336;2023-01-29T01:59:54;102237.28;;;3.93;71.65
16595;BME280;8410;52.532;13.336;2023-01-29T02:02:23;102234.22;;;3.59;72.12
16595;BME280;8410;52.532;13.336;2023-01-29T02:05:10;102217.41;;;4.29;72.33
16595;BME280;8410;52.532;13.336;2023-01-29T02:07:56;102211.47;;;4.02;72.29
16595;BME280;8410;52.532;13.336;2023-01-29T02:10:45;102209.50;;;3.98;71.37
16595;BME280;8410;52.532;13.336;2023-01-29T02:13:13;102204.69;;;4.16;72.34
16595;BME280;8410;52.532;13.336;2023-01-29T02:15:44;102207.91;;;4.27;71.09
16595;BME280;8410;52.532;13.336;2023-01-29T02:18:15;102222.88;;;3.67;73.09
16595;BME280;8410;52.532;13.336;2023-01-29T02:20:48;102222.47;;;3.48;74.01
16595;BME280;8410;52.532;13.336;2023-01-29T02:23:58;102210.41;;;4.40;72.36
16595;BME280;8410;52.532;13.336;2023-01-29T02:26:46;102200.13;;;4.67;70.79
16595;BME280;8410;52.532;13.336;2023-01-29T02:29:21;102201.00;;;3.97;71.29
16595;BME280;8410;52.532;13.336;2023-01-29T02:31:59;102203.56;;;4.39;71.22
16595;BME280;8410;52.532;13.336;2023-01-29T02:34:38;102202.50;;;4.22;71.94
16595;BME280;8410;52.532;13.336;2023-01-29T02:37:29;102201.69;;;3.82;72.13
16595;BME280;8410;52.532;13.336;2023-01-29T02:40:07;102204.88;;;4.19;72.58
16595;BME280;8410;52.532;13.336;2023-01-29T02:42:44;102198.66;;;4.42;72.50
16595;BME280;8410;52.532;13.336;2023-01-29T02:45:17;102199.09;;;4.22;75.37
16595;BME280;8410;52.532;13.336;2023-01-29T02:47:52;102206.44;;;4.17;76.83
16595;BME280;8410;52.532;13.336;2023-01-29T02:50:26;102199.50;;;4.28;76.08
16595;BME280;8410;52.532;13.336;2023-01-29T02:52:58;102198.38;;;3.29;79.42
16595;BME280;8410;52.532;13.336;2023-01-29T02:55:34;102188.88;;;3.80;79.30
16595;BME280;8410;52.532;13.336;2023-01-29T02:58:08;102181.56;;;4.41;76.98
16595;BME280;8410;52.532;13.336;2023-01-29T03:00:41;102188.81;;;4.48;73.59
16595;BME280;8410;52.532;13.336;2023-01-29T03:03:13;102191.97;;;4.44;73.37
16595;BME280;8410;52.532;13.336;2023-01-29T03:05:47;102193.66;;;4.30;73.14
16595;BME280;8410;52.532;13.336;2023-01-29T03:08:24;102189.38;;;4.57;72.34
16595;BME280;8410;52.532;13.336;2023-01-29T03:11:03;102186.56;;;4.68;72.13
16595;BME280;8410;52.532;13.336;2023-01-29T03:13:37;102185.00;;;4.70;71.91
16595;BME280;8410;52.532;13.336;2023-01-29T03:16:13;102174.38;;;4.77;71.87
16595;BME280;8410;52.532;13.336;2023-01-29T03:18:48;102184.22;;;4.42;72.06
16595;BME280;8410;52.532;13.336;2023-01-29T03:21:20;102190.16;;;4.28;73.16
16595;BME280;8410;52.532;13.336;2023-01-29T03:24:08;102187.94;;;4.06;73.58
16595;BME280;8410;52.532;13.336;2023-01-29T03:26:55;102183.16;;;4.39;73.02
16595;BME280;8410;52.532;13.336;2023-01-29T03:29:42;102178.97;;;4.54;72.35
16595;BME280;8410;52.532;13.336;2023-01-29T03:32:30;102174.44;;;4.63;72.18
16595;BME280;8410;52.532;13.336;2023-01-29T03:35:01;102164.94;;;4.33;72.02
16595;BME280;8410;52.532;13.336;2023-01-29T03:37:32;102164.19;;;4.20;73.42
16595;BME280;8410;52.532;13.336;2023-01-29T03:40:03;102159.56;;;3.07;78.13
16595;BME280;8410;52.532;13.336;2023-01-29T03:42:40;102156.63;;;4.22;73.79
16595;BME280;8410;52.532;13.336;2023-01-29T03:45:13;102150.34;;;3.89;74.48
16595;BME280;8410;52.532;13.336;2023-01-29T03:47:48;102142.28;;;4.09;74.14
16595;BME280;8410;52.532;13.336;2023-01-29T03:50:30;102136.13;;;4.34;71.82
16595;BME280;8410;52.532;13.336;2023-01-29T03:53:03;102134.31;;;3.63;76.87
16595;BME280;8410;52.532;13.336;2023-01-29T03:55:35;102129.19;;;3.90;75.12
16595;BME280;8410;52.532;13.336;2023-01-29T03:58:11;102113.94;;;4.33;73.76
16595;BME280;8410;52.532;13.336;2023-01-29T04:00:48;102115.00;;;4.79;73.26
16595;BME280;8410;52.532;13.336;2023-01-29T04:03:22;102105.88;;;4.40;73.60
16595;BME280;8410;52.532;13.336;2023-01-29T04:05:55;102100.84;;;4.27;74.85
16595;BME280;8410;52.532;13.336;2023-01-29T04:08:33;102096.38;;;4.37;75.43
16595;BME280;8410;52.532;13.336;2023-01-29T04:11:07;102092.38;;;3.71;76.62
16595;BME280;8410;52.532;13.336;2023-01-29T04:13:37;102089.09;;;2.93;77.54
16595;BME280;8410;52.532;13.336;2023-01-29T04:16:08;102089.06;;;2.66;81.63
16595;BME280;8410;52.532;13.336;2023-01-29T04:18:39;102087.31;;;3.58;80.49
16595;BME280;8410;52.532;13.336;2023-01-29T04:21:06;102077.94;;;3.17;80.21
16595;BME280;8410;52.532;13.336;2023-01-29T04:23:34;102079.13;;;3.22;79.43
16595;BME280;8410;52.532;13.336;2023-01-29T04:26:15;102076.78;;;4.08;78.03
16595;BME280;8410;52.532;13.336;2023-01-29T04:28:53;102073.47;;;4.09;78.70
16595;BME280;8410;52.532;13.336;2023-01-29T04:31:28;102068.34;;;4.37;78.25
16595;BME280;8410;52.532;13.336;2023-01-29T04:34:03;102058.84;;;4.64;78.15
16595;BME280;8410;52.532;13.336;2023-01-29T04:36:41;102055.94;;;4.29;78.72
16595;BME280;8410;52.532;13.336;2023-01-29T04:39:17;102058.97;;;4.08;77.67
16595;BME280;8410;52.532;13.336;2023-01-29T04:41:49;102062.84;;;4.16;80.10
16595;BME280;8410;52.532;13.336;2023-01-29T04:44:22;102070.06;;;3.67;80.63
16595;BME280;8410;52.532;13.336;2023-01-29T04:46:59;102076.22;;;4.27;79.95
16595;BME280;8410;52.532;13.336;2023-01-29T04:49:34;102063.25;;;4.52;78.33
16595;BME280;8410;52.532;13.336;2023-01-29T04:52:08;102067.66;;;4.70;77.15
16595;BME280;8410;52.532;13.336;2023-01-29T04:54:49;102072.22;;;4.31;78.85
16595;BME280;8410;52.532;13.336;2023-01-29T04:57:21;102066.94;;;4.42;78.94
16595;BME280;8410;52.532;13.336;2023-01-29T04:59:56;102067.72;;;3.70;81.02
16595;BME280;8410;52.532;13.336;2023-01-29T05:02:28;102070.06;;;4.24;80.83
16595;BME280;8410;52.532;13.336;2023-01-29T05:04:59;102062.47;;;4.10;80.66
16595;BME280;8410;52.532;13.336;2023-01-29T05:07:27;102070.81;;;4.51;79.43
16595;BME280;8410;52.532;13.336;2023-01-29T05:09:56;102078.03;;;4.73;79.12
16595;BME280;8410;52.532;13.336;2023-01-29T05:12:25;102066.06;;;4.57;79.94
16595;BME280;8410;52.532;13.336;2023-01-29T05:14:59;102073.47;;;4.67;78.61
16595;BME280;8410;52.532;13.336;2023-01-29T05:17:28;102075.34;;;4.27;79.00
16595;BME280;8410;52.532;13.336;2023-01-29T05:19:56;102072.84;;;4.41;79.52
16595;BME280;8410;52.532;13.336;2023-01-29T05:22:25;102068.59;;;4.57;80.01
16595;BME280;8410;52.532;13.336;2023-01-29T05:24:53;102071.97;;;4.56;79.89
16595;BME280;8410;52.532;13.336;2023-01-29T05:27:26;102072.06;;;4.57;78.28
16595;BME280;8410;52.532;13.336;2023-01-29T05:30:14;102076.25;;;4.42;79.51
16595;BME280;8410;52.532;13.336;2023-01-29T05:32:42;102083.28;;;4.46;79.29
16595;BME280;8410;52.532;13.336;2023-01-29T05:35:09;102076.16;;;4.40;79.29
16595;BME280;8410;52.532;13.336;2023-01-29T05:37:38;102083.22;;;4.16;80.66
16595;BME280;8410;52.532;13.336;2023-01-29T05:40:07;102071.84;;;4.54;78.89
16595;BME280;8410;52.532;13.336;2023-01-29T05:42:35;102079.00;;;4.45;80.01
16595;BME280;8410;52.532;13.336;2023-01-29T05:45:03;102074.16;;;4.50;79.62
16595;BME280;8410;52.532;13.336;2023-01-29T05:47:30;102084.69;;;4.41;79.76
16595;BME280;8410;52.532;13.336;2023-01-29T05:49:58;102080.31;;;4.53;78.33
16595;BME280;8410;52.532;13.336;2023-01-29T05:52:25;102083.28;;;4.46;79.13
16595;BME280;8410;52.532;13.336;2023-01-29T05:54:54;102088.41;;;4.61;78.58
16595;BME280;8410;52.532;13.336;2023-01-29T05:57:21;102089.91;;;4.57;79.31
16595;BME280;8410;52.532;13.336;2023-01-29T05:59:49;102086.94;;;4.79;78.40
16595;BME280;8410;52.532;13.336;2023-01-29T06:02:16;102091.59;;;4.86;78.37
16595;BME280;8410;52.532;13.336;2023-01-29T06:04:44;102090.50;;;4.53;77.88
16595;BME280;8410;52.532;13.336;2023-01-29T06:07:11;102091.94;;;4.78;79.03
16595;BME280;8410;52.532;13.336;2023-01-29T06:09:39;102096.97;;;4.76;78.37
16595;BME280;8410;52.532;13.336;2023-01-29T06:12:08;102093.19;;;4.84;78.04
16595;BME280;8410;52.532;13.336;2023-01-29T06:14:35;102103.81;;;4.62;79.44
16595;BME280;8410;52.532;13.336;2023-01-29T06:17:02;102100.03;;;4.71;78.36
16595;BME280;8410;52.532;13.336;2023-01-29T06:19:30;102110.41;;;4.74;78.80
16595;BME280;8410;52.532;13.336;2023-01-29T06:21:57;102106.72;;;4.69;79.25
16595;BME280;8410;52.532;13.336;2023-01-29T06:24:25;102098.75;;;4.34;80.90
16595;BME280;8410;52.532;13.336;2023-01-29T06:26:52;102089.47;;;4.64;79.38
16595;BME280;8410;52.532;13.336;2023-01-29T06:29:21;102095.13;;;3.88;80.39
16595;BME280;8410;52.532;13.336;2023-01-29T06:31:49;102096.75;;;3.46;84.37
16595;BME280;8410;52.532;13.336;2023-01-29T06:34:16;102098.22;;;4.40;81.70
16595;BME280;8410;52.532;13.336;2023-01-29T06:36:44;102094.50;;;4.20;80.85
16595;BME280;8410;52.532;13.336;2023-01-29T06:39:11;102093.06;;;4.10;81.54
16595;BME280;8410;52.532;13.336;2023-01-29T06:41:39;102084.38;;;4.07;80.69
16595;BME280;8410;52.532;13.336;2023-01-29T06:44:06;102086.94;;;4.22;81.56
16595;BME280;8410;52.532;13.336;2023-01-29T06:46:35;102091.38;;;4.39;80.70
16595;BME280;8410;52.532;13.336;2023-01-29T06:49:03;102090.50;;;4.53;80.25
16595;BME280;8410;52.532;13.336;2023-01-29T06:51:30;102098.66;;;4.76;79.51
16595;BME280;8410;52.532;13.336;2023-01-29T06:53:58;102117.75;;;4.54;80.34
16595;BME280;8410;52.532;13.336;2023-01-29T06:56:25;102107.00;;;4.30;81.71
16595;BME280;8410;52.532;13.336;2023-01-29T06:58:53;102097.06;;;3.79;82.01
16595;BME280;8410;52.532;13.336;2023-01-29T07:01:21;102102.16;;;3.79;84.55
16595;BME280;8410;52.532;13.336;2023-01-29T07:04:02;102099.13;;;3.84;83.02
16595;BME280;8410;52.532;13.336;2023-01-29T07:06:30;102094.97;;;4.28;81.90
16595;BME280;8410;52.532;13.336;2023-01-29T07:08:58;102088.22;;;4.43;81.83
16595;BME280;8410;52.532;13.336;2023-01-29T07:11:25;102089.81;;;3.85;81.59
16595;BME280;8410;52.532;13.336;2023-01-29T07:13:52;102095.31;;;4.34;83.20
16595;BME280;8410;52.532;13.336;2023-01-29T07:16:20;102080.13;;;3.79;85.23
16595;BME280;8410;52.532;13.336;2023-01-29T07:18:48;102081.56;;;3.89;83.28
16595;BME280;8410;52.532;13.336;2023-01-29T07:21:17;102080.91;;;4.06;83.28
16595;BME280;8410;52.532;13.336;2023-01-29T07:23:44;102079.41;;;4.38;83.23
16595;BME280;8410;52.532;13.336;2023-01-29T07:26:12;102086.13;;;4.80;81.20
16595;BME280;8410;52.532;13.336;2023-01-29T07:28:40;102102.31;;;4.66;81.40
16595;BME280;8410;52.532;13.336;2023-01-29T07:31:10;102107.38;;;4.51;80.56
16595;BME280;8410;52.532;13.336;2023-01-29T07:33:38;102098.00;;;4.50;81.47
16595;BME280;8410;52.532;13.336;2023-01-29T07:36:06;102087.88;;;4.96;81.26
16595;BME280;8410;52.532;13.336;2023-01-29T07:38:35;102094.75;;;4.82;80.62
16595;BME280;8410;52.532;13.336;2023-01-29T07:41:03;102093.41;;;4.59;81.88
16595;BME280;8410;52.532;13.336;2023-01-29T07:43:31;102089.91;;;4.57;81.83
16595;BME280;8410;52.532;13.336;2023-01-29T07:46:00;102073.59;;;4.40;82.47
16595;BME280;8410;52.532;13.336;2023-01-29T07:48:28;102059.56;;;4.62;82.15
16595;BME280;8410;52.532;13.336;2023-01-29T07:50:56;102052.34;;;4.40;81.57
16595;BME280;8410;52.532;13.336;2023-01-29T07:53:25;102048.31;;;4.58;82.63
16595;BME280;8410;52.532;13.336;2023-01-29T07:55:55;102043.53;;;4.94;82.78
16595;BME280;8410;52.532;13.336;2023-01-29T07:58:22;102044.59;;;4.83;81.97
16595;BME280;8410;52.532;13.336;2023-01-29T08:00:50;102053.59;;;4.76;82.96
16595;BME280;8410;52.532;13.336;2023-01-29T08:03:18;102065.34;;;4.59;81.06
16595;BME280;8410;52.532;13.336;2023-01-29T08:05:46;102055.06;;;4.73;83.21
16595;BME280;8410;52.532;13.336;2023-01-29T08:08:14;102053.03;;;3.66;84.63
16595;BME280;8410;52.532;13.336;2023-01-29T08:10:42;102047.41;;;4.43;84.48
16595;BME280;8410;52.532;13.336;2023-01-29T08:13:10;102044.47;;;4.07;83.82
16595;BME280;8410;52.532;13.336;2023-01-29T08:15:41;102043.28;;;4.45;84.55
16595;BME280;8410;52.532;13.336;2023-01-29T08:18:09;102035.97;;;4.81;83.30
16595;BME280;8410;52.532;13.336;2023-01-29T08:20:37;102040.53;;;5.01;82.41
16595;BME280;8410;52.532;13.336;2023-01-29T08:23:05;102052.28;;;4.10;84.21
16595;BME280;8410;52.532;13.336;2023-01-29T08:25:34;102048.22;;;4.72;84.25
16595;BME280;8410;52.532;13.336;2023-01-29T08:28:03;102044.59;;;4.83;84.49
16595;BME280;8410;52.532;13.336;2023-01-29T08:30:33;102053.84;;;4.66;83.52
16595;BME280;8410;52.532;13.336;2023-01-29T08:33:02;102037.13;;;4.86;83.12
16595;BME280;8410;52.532;13.336;2023-01-29T08:35:30;102040.22;;;4.66;82.57
16595;BME280;8410;52.532;13.336;2023-01-29T08:37:59;102039.34;;;4.80;84.08
16595;BME280;8410;52.532;13.336;2023-01-29T08:40:28;102042.59;;;4.92;83.24
16595;BME280;8410;52.532;13.336;2023-01-29T08:42:57;102042.81;;;4.97;82.63
16595;BME280;8410;52.532;13.336;2023-01-29T08:45:28;102038.09;;;4.88;83.93
16595;BME280;8410;52.532;13.336;2023-01-29T08:47:57;102038.44;;;4.35;84.35
16595;BME280;8410;52.532;13.336;2023-01-29T08:50:24;102036.13;;;5.14;82.59
16595;BME280;8410;52.532;13.336;2023-01-29T08:52:56;102039.81;;;5.19;82.50
16595;BME280;8410;52.532;13.336;2023-01-29T08:55:24;102048.34;;;5.04;82.05
16595;BME280;8410;52.532;13.336;2023-01-29T08:57:52;102032.13;;;4.73;83.84
16595;BME280;8410;52.532;13.336;2023-01-29T09:00:20;102036.63;;;5.23;83.50
16595;BME280;8410;52.532;13.336;2023-01-29T09:02:47;102034.31;;;5.27;82.53
16595;BME280;8410;52.532;13.336;2023-01-29T09:05:16;102037.06;;;5.47;81.56
16595;BME280;8410;52.532;13.336;2023-01-29T09:07:45;102034.13;;;5.56;81.73
16595;BME280;8410;52.532;13.336;2023-01-29T09:10:12;102026.22;;;5.35;80.93
16595;BME280;8410;52.532;13.336;2023-01-29T09:12:40;102025.25;;;5.33;81.45
16595;BME280;8410;52.532;13.336;2023-01-29T09:15:08;102033.03;;;4.73;82.85
16595;BME280;8410;52.532;13.336;2023-01-29T09:17:36;102037.41;;;4.03;84.92
16595;BME280;8410;52.532;13.336;2023-01-29T09:20:04;102028.03;;;5.06;83.65
16595;BME280;8410;52.532;13.336;2023-01-29T09:22:33;102022.44;;;4.67;82.85
16595;BME280;8410;52.532;13.336;2023-01-29T09:25:01;102035.44;;;4.12;83.82
16595;BME280;8410;52.532;13.336;2023-01-29T09:27:28;102026.47;;;4.78;85.07
16595;BME280;8410;52.532;13.336;2023-01-29T09:29:56;102028.78;;;5.35;82.22
16595;BME280;8410;52.532;13.336;2023-01-29T09:32:24;102027.19;;;4.46;84.36
16595;BME280;8410;52.532;13.336;2023-01-29T09:35:11;102010.25;;;5.07;83.80
16595;BME280;8410;52.532;13.336;2023-01-29T09:37:40;102020.16;;;4.42;84.10
16595;BME280;8410;52.532;13.336;2023-01-29T09:42:48;102010.81;;;5.49;81.40
16595;BME280;8410;52.532;13.336;2023-01-29T09:45:20;102017.34;;;5.44;81.93
16595;BME280;8410;52.532;13.336;2023-01-29T09:47:50;102002.66;;;5.24;82.11
16595;BME280;8410;52.532;13.336;2023-01-29T09:50:22;102000.75;;;5.36;82.29
16595;BME280;8410;52.532;13.336;2023-01-29T09:52:56;101992.13;;;5.50;80.06
16595;BME280;8410;52.532;13.336;2023-01-29T09:55:26;101990.25;;;5.95;79.52
16595;BME280;8410;52.532;13.336;2023-01-29T09:57:56;101991.00;;;5.29;80.36
16595;BME280;8410;52.532;13.336;2023-01-29T10:00:29;101984.56;;;5.04;82.28
16595;BME280;8410;52.532;13.336;2023-01-29T10:03:22;101973.56;;;5.86;79.67
16595;BME280;8410;52.532;13.336;2023-01-29T10:06:04;101981.13;;;5.68;79.14
16595;BME280;8410;52.532;13.336;2023-01-29T10:09:08;101975.50;;;5.26;81.33
16595;BME280;8410;52.532;13.336;2023-01-29T10:11:45;101976.63;;;4.54;81.93
16595;BME280;8410;52.532;13.336;2023-01-29T10:14:22;101960.69;;;4.73;81.89
16595;BME280;8410;52.532;13.336;2023-01-29T10:17:02;101956.22;;;5.31;83.08
16595;BME280;8410;52.532;13.336;2023-01-29T10:19:52;101960.69;;;5.35;81.55
16595;BME280;8410;52.532;13.336;2023-01-29T10:22:49;101957.16;;;5.82;79.56
16595;BME280;8410;52.532;13.336;2023-01-29T10:25:21;101966.78;;;6.03;79.15
16595;BME280;8410;52.532;13.336;2023-01-29T10:27:52;101979.25;;;5.96;78.76
16595;BME280;8410;52.532;13.336;2023-01-29T10:30:28;101975.81;;;6.30;76.96
16595;BME280;8410;52.532;13.336;2023-01-29T10:32:59;101979.00;;;6.60;75.52
16595;BME280;8410;52.532;13.336;2023-01-29T10:35:30;101974.00;;;5.93;79.02
16595;BME280;8410;52.532;13.336;2023-01-29T10:38:12;101972.84;;;6.05;79.16
16595;BME280;8410;52.532;13.336;2023-01-29T10:40:45;101958.09;;;6.17;78.32
16595;BME280;8410;52.532;13.336;2023-01-29T10:43:19;101956.09;;;6.46;76.90
16595;BME280;8410;52.532;13.336;2023-01-29T10:45:54;101937.34;;;6.11;76.06
16595;BME280;8410;52.532;13.336;2023-01-29T10:48:39;101939.88;;;6.27;76.36
16595;BME280;8410;52.532;13.336;2023-01-29T10:51:18;101935.66;;;6.46;75.16
16595;BME280;8410;52.532;13.336;2023-01-29T10:53:56;101935.81;;;6.84;74.93
16595;BME280;8410;52.532;13.336;2023-01-29T10:56:38;101925.88;;;6.55;75.30
16595;BME280;8410;52.532;13.336;2023-01-29T10:59:25;101923.50;;;6.77;75.55
16595;BME280;8410;52.532;13.336;2023-01-29T11:01:57;101904.78;;;6.78;76.22
16595;BME280;8410;52.532;13.336;2023-01-29T11:04:25;101895.13;;;7.10;73.88
16595;BME280;8410;52.532;13.336;2023-01-29T11:06:54;101897.44;;;7.04;76.01
16595;BME280;8410;52.532;13.336;2023-01-29T11:09:28;101902.75;;;6.71;74.82
16595;BME280;8410;52.532;13.336;2023-01-29T11:12:02;101891.88;;;6.95;75.37
16595;BME280;8410;52.532;13.336;2023-01-29T11:14:41;101886.50;;;6.71;73.33
16595;BME280;8410;52.532;13.336;2023-01-29T11:17:14;101892.66;;;5.86;78.99
16595;BME280;8410;52.532;13.336;2023-01-29T11:19:44;101892.06;;;6.80;75.14
16595;BME280;8410;52.532;13.336;2023-01-29T11:22:13;101885.63;;;6.88;75.79
16595;BME280;8410;52.532;13.336;2023-01-29T11:24:41;101862.25;;;7.58;74.39
16595;BME280;8410;52.532;13.336;2023-01-29T11:27:22;101870.91;;;7.41;72.21
16595;BME280;8410;52.532;13.336;2023-01-29T11:29:51;101875.84;;;6.79;73.28
16595;BME280;8410;52.532;13.336;2023-01-29T11:32:28;101868.22;;;7.59;72.30
16595;BME280;8410;52.532;13.336;2023-01-29T11:34:58;101861.72;;;7.07;72.89
16595;BME280;8410;52.532;13.336;2023-01-29T11:37:34;101856.84;;;6.38;73.44
16595;BME280;8410;52.532;13.336;2023-01-29T11:40:28;101864.88;;;6.64;73.09
16595;BME280;8410;52.532;13.336;2023-01-29T11:43:20;101847.72;;;6.44;75.17
16595;BME280;8410;52.532;13.336;2023-01-29T11:45:50;101844.16;;;6.22;76.86
16595;BME280;8410;52.532;13.336;2023-01-29T11:48:21;101838.34;;;6.99;73.14
16595;BME280;8410;52.532;13.336;2023-01-29T11:50:54;101849.31;;;7.36;72.51
16595;BME280;8410;52.532;13.336;2023-01-29T11:53:31;101834.81;;;7.36;72.98
16595;BME280;8410;52.532;13.336;2023-01-29T11:56:02;101836.19;;;7.28;72.14
16595;BME280;8410;52.532;13.336;2023-01-29T11:58:41;101848.06;;;6.69;74.26
16595;BME280;8410;52.532;13.336;2023-01-29T12:01:10;101828.03;;;7.17;72.20
16595;BME280;8410;52.532;13.336;2023-01-29T12:03:40;101821.59;;;7.46;71.97
16595;BME280;8410;52.532;13.336;2023-01-29T12:06:16;101829.97;;;7.42;71.63
16595;BME280;8410;52.532;13.336;2023-01-29T12:08:52;101829.47;;;6.73;73.04
16595;BME280;8410;52.532;13.336;2023-01-29T12:11:26;101810.38;;;7.85;71.63
16595;BME280;8410;52.532;13.336;2023-01-29T12:13:57;101807.81;;;7.23;71.99
16595;BME280;8410;52.532;13.336;2023-01-29T12:16:27;101801.22;;;6.90;71.57
16595;BME280;8410;52.532;13.336;2023-01-29T12:19:06;101814.59;;;6.84;73.55
16595;BME280;8410;52.532;13.336;2023-01-29T12:21:38;101810.78;;;7.13;73.83
16595;BME280;8410;52.532;13.336;2023-01-29T12:24:19;101804.75;;;7.51;70.94
16595;BME280;8410;52.532;13.336;2023-01-29T12:26:53;101803.09;;;7.54;70.77
16595;BME280;8410;52.532;13.336;2023-01-29T12:29:30;101793.78;;;7.15;72.38
16595;BME280;8410;52.532;13.336;2023-01-29T12:32:06;101797.72;;;6.88;73.84
16595;BME280;8410;52.532;13.336;2023-01-29T12:34:43;101787.88;;;6.58;74.21
16595;BME280;8410;52.532;13.336;2023-01-29T12:37:19;101788.47;;;5.99;75.99
16595;BME280;8410;52.532;13.336;2023-01-29T12:39:48;101776.09;;;6.44;74.95
16595;BME280;8410;52.532;13.336;2023-01-29T12:42:18;101772.25;;;6.71;74.65
16595;BME280;8410;52.532;13.336;2023-01-29T12:44:51;101771.38;;;6.90;72.64
16595;BME280;8410;52.532;13.336;2023-01-29T12:47:22;101775.75;;;6.36;74.59
16595;BME280;8410;52.532;13.336;2023-01-29T12:49:54;101770.97;;;6.81;73.02
16595;BME280;8410;52.532;13.336;2023-01-29T12:52:34;101773.88;;;6.69;73.88
16595;BME280;8410;52.532;13.336;2023-01-29T12:55:09;101770.91;;;6.05;76.34
16595;BME280;8410;52.532;13.336;2023-01-29T12:57:41;101774.75;;;6.32;75.59
16595;BME280;8410;52.532;13.336;2023-01-29T13:00:14;101771.22;;;6.30;76.28
16595;BME280;8410;52.532;13.336;2023-01-29T13:02:48;101764.75;;;6.76;73.60
16595;BME280;8410;52.532;13.336;2023-01-29T13:05:19;101759.91;;;7.01;72.17
16595;BME280;8410;52.532;13.336;2023-01-29T13:07:53;101759.84;;;7.40;72.34
16595;BME280;8410;52.532;13.336;2023-01-29T13:10:26;101758.91;;;6.98;70.90
16595;BME280;8410;52.532;13.336;2023-01-29T13:12:58;101758.97;;;6.80;72.93
16595;BME280;8410;52.532;13.336;2023-01-29T13:15:31;101756.19;;;6.95;73.95
16595;BME280;8410;52.532;13.336;2023-01-29T13:18:17;101753.78;;;7.17;71.88
16595;BME280;8410;52.532;13.336;2023-01-29T13:20:50;101758.47;;;7.27;71.75
16595;BME280;8410;52.532;13.336;2023-01-29T13:23:20;101744.41;;;6.59;73.19
16595;BME280;8410;52.532;13.336;2023-01-29T13:25:50;101734.97;;;7.17;73.34
16595;BME280;8410;52.532;13.336;2023-01-29T13:28:19;101746.22;;;7.20;73.27
16595;BME280;8410;52.532;13.336;2023-01-29T13:31:10;101743.00;;;7.24;70.98